Cheviot Hills, CA (90064)

8:56 PM PDT on May 22, 2015 (GMT -0700)
Westside Village | | Change Station
CLOSE
Current Station
Personal Weather Station
Location: Los Angeles, CA
Elevation: 187 ft
Nearby Weather Stations

Elev 187 ft 34.03 °N, 118.42 °W | Updated 11 minutes ago

Overcast
Overcast
61.0 °F
Feels Like 61.0 °F
N
0.0
Wind Variable Wind from SSW

Today
High -- | Low -- °F
--% Chance of Precip.
Yesterday
High -- | Low -- °F
Precip. -- in
5:47 AM 7:53 PM
Waxing Crescent, 26% visible
Pressure 30.05 in
Visibility 10.0 miles
Clouds Overcast 4800 ft
Dew Point 54 °F
Humidity 79%
Rainfall 0.00 in
Snow Depth Not available.
UV 0 out of 12
Pollen 4.00 out of 12
Air Quality Not available.
Flu Activity Sporadic
METAR KSMO 230351Z AUTO 16005KT 10SM OVC048 17/12 A3005 RMK AO2 SLP175 T01670117

More Conditions Fewer Conditions

Pressure 30.05 in
Visibility 10.0 miles
Clouds Overcast 4800 ft
Dew Point 54 °F
Humidity 79%
Rainfall 0.00 in
Snow Depth Not available.
UV 0 out of 12
Pollen 4.00 out of 12
Air Quality Not available.
Flu Activity Sporadic
METAR KSMO 230351Z AUTO 16005KT 10SM OVC048 17/12 A3005 RMK AO2 SLP175 T01670117

More Conditions Fewer Conditions

10-Day Weather Forecast

Almanac

Astronomy

May. 22, 2015 Rise Set
Actual Time
Civil Twilight
Nautical Twilight
Astronomical Twilight
Moon
Length of Visible Light
Length of Day
Tomorrow will be .
, % of the Moon is Illuminated

Today's Extremes

State Highs State Lows

Community

WunderPhotos

Upload Photos

1,823,383 photos uploaded!

WunderBlogs® & News

Nearby

Air Quality

  Air Quality AQ Index Pollutant
Not available.

Snow Depth

Station Depth Elevation

Earthquake Activity

City Distance Mag. Time & Date
Minimum magnitude displayed is 2.5.

Coastal Water Temperatures

Place Temperature

Stations

Nearby Weather Stations

Station Location Temp. Windchill Dew Point Humidity Wind Precip. Elev Updated Type